Castro Valley, CA (94546)

5:52 PM PST on February 13, 2016 (GMT -0800)
Castro Valley | | Change Station
CLOSE
Current Station
Personal Weather Station
Location: Castro Valley, CA
Elevation: 367 ft
Nearby Weather Stations

Elev 367 ft 37.72 °N, 122.08 °W | Updated 3 seconds ago

Partly Cloudy
Partly Cloudy
59.4 °F
Feels Like 59.4 °F
N
0.0
Wind Variable Wind from NW
Gusts 0.0 mph

Today
High -- | Low -- °F
--% Chance of Precip.
Yesterday
High -- | Low -- °F
Precip. -- in
Pressure 30.24 in
Visibility 10.0 miles
Clouds Few 20000 ft
Dew Point 24 °F
Humidity 25%
Rainfall 0.00 in
Snow Depth Not available.
7:00 AM 5:44 PM
Waxing Crescent, 36% visible
METAR KHWD 140054Z 27006KT 10SM FEW200 16/11 A3021 RMK AO2 SLP238 T01610106
Pressure 30.24 in
Visibility 10.0 miles
Clouds Few 20000 ft
Dew Point 24 °F
Humidity 25%
Rainfall 0.00 in
Snow Depth Not available.
7:00 AM 5:44 PM
Waxing Crescent, 36% visible
METAR KHWD 140054Z 27006KT 10SM FEW200 16/11 A3021 RMK AO2 SLP238 T01610106

10-Day Weather Forecast

Almanac

Astronomy

Feb. 13, 2016 Rise Set
Actual Time
Civil Twilight
Nautical Twilight
Astronomical Twilight
Moon
Length of Visible Light
Length of Day
Tomorrow will be .
, % of the Moon is Illuminated

Today's Extremes

State Highs State Lows

Community

WunderPhotos

Upload Photos

1,892,722 photos uploaded!

WunderBlog® & News

Nearby

Air Quality

  Air Quality AQ Index Pollutant
Not available.

Snow Depth

Station Depth Elevation

Earthquake Activity

City Distance Mag. Time & Date
Minimum magnitude displayed is 2.5.

Coastal Water Temperatures

Place Temperature

Stations

Nearby Weather Stations

Station Location Temp. Windchill Dew Point Humidity Wind Precip. Elev Updated Type
                   

Watches & Warnings

There are currently no watches in effect.